Time;durP1;ratioP1;P1;durP2;ratioP2;P2;SDS_P1;SDS_P2;PMS_P1;PMS_P2;Temp;Humidity;BMP_temperature;BMP_pressure;BME280_temperature;BME280_humidity;BME280_pressure;Samples;Min_cycle;Max_cycle;Signal;HPM_P1;HPM_P2
2021/06/04 00:01:48;;;;;;;4.70;3.53;;;;;;;14.56;61.81;101447.88;4978240;28;20224;-71
2021/06/04 00:04:15;;;;;;;4.20;3.40;;;;;;;14.53;62.30;101441.88;4983925;28;20209;-71
2021/06/04 00:06:41;;;;;;;4.60;3.40;;;;;;;14.50;62.25;101449.81;4981352;28;20225;-72
2021/06/04 00:09:10;;;;;;;5.33;3.53;;;;;;;14.48;61.91;101449.88;4996200;28;20199;-71
2021/06/04 00:11:38;;;;;;;5.30;3.27;;;;;;;14.43;62.25;101438.63;4977841;28;20205;-71
2021/06/04 00:14:07;;;;;;;4.13;3.47;;;;;;;14.41;62.26;101442.22;4981619;28;20274;-71
2021/06/04 00:16:38;;;;;;;4.53;3.47;;;;;;;14.39;62.09;101447.50;4983506;28;20233;-71
2021/06/04 00:19:09;;;;;;;4.10;3.50;;;;;;;14.39;62.33;101442.25;4979340;28;20598;-71
2021/06/04 00:21:38;;;;;;;4.63;3.17;;;;;;;14.41;62.13;101442.22;4984398;28;20278;-71
2021/06/04 00:24:07;;;;;;;4.83;3.23;;;;;;;14.38;62.08;101445.78;4987767;28;20565;-71
2021/06/04 00:26:37;;;;;;;5.43;3.43;;;;;;;14.32;63.09;101448.59;4988193;28;20228;-71
2021/06/04 00:29:03;;;;;;;5.23;3.60;;;;;;;14.26;62.90;101446.97;4987371;28;20597;-71
2021/06/04 00:31:30;;;;;;;3.90;3.50;;;;;;;14.23;63.60;101440.97;4983984;28;20252;-72
2021/06/04 00:33:57;;;;;;;4.53;3.30;;;;;;;14.21;63.11;101441.00;4984125;28;20281;-71
2021/06/04 00:36:24;;;;;;;3.60;3.30;;;;;;;14.20;62.92;101437.53;4967134;28;20797;-71
2021/06/04 00:38:52;;;;;;;4.13;3.70;;;;;;;14.19;63.02;101443.69;4980422;28;20213;-71
2021/06/04 00:41:21;;;;;;;3.60;3.27;;;;;;;14.19;63.11;101437.56;4989229;28;20219;-72
2021/06/04 00:43:49;;;;;;;4.47;3.90;;;;;;;14.17;63.34;101442.00;4998012;28;20213;-72
2021/06/04 00:46:15;;;;;;;4.40;3.23;;;;;;;14.11;64.13;101436.94;4987141;28;20240;-71
2021/06/04 00:48:41;;;;;;;3.43;3.10;;;;;;;14.00;65.32;101445.09;4982664;28;20211;-73
2021/06/04 00:51:20;;;;;;;4.47;3.53;;;;;;;13.89;66.37;101440.13;5004562;28;20200;-72
2021/06/04 00:53:50;;;;;;;4.33;3.57;;;;;;;13.83;68.59;101446.41;4981398;28;20203;-71
2021/06/04 00:56:20;;;;;;;5.90;3.90;;;;;;;13.74;68.69;101448.44;4988205;28;20249;-71
2021/06/04 00:58:49;;;;;;;3.93;3.50;;;;;;;13.67;67.44;101452.09;4986206;28;20228;-71
2021/06/04 01:01:18;;;;;;;3.77;3.33;;;;;;;13.62;67.35;101449.59;4993118;28;20215;-71
2021/06/04 01:03:50;;;;;;;4.33;3.60;;;;;;;13.55;66.97;101448.03;4982990;28;20218;-71
2021/06/04 01:06:29;;;;;;;4.70;3.73;;;;;;;13.55;66.98;101445.41;4980476;28;20235;-71
2021/06/04 01:09:10;;;;;;;3.93;3.40;;;;;;;13.57;66.59;101443.63;4986924;28;20581;-71
2021/06/04 01:11:52;;;;;;;5.47;4.03;;;;;;;13.57;66.65;101436.59;4998252;28;20201;-71
2021/06/04 01:14:26;;;;;;;4.83;3.67;;;;;;;13.59;66.58;101429.56;4986499;28;20285;-71
2021/06/04 01:16:59;;;;;;;5.13;4.00;;;;;;;13.58;67.02;101432.25;4967158;28;20219;-71
2021/06/04 01:19:41;;;;;;;5.30;3.80;;;;;;;13.62;66.60;101429.50;4988256;28;20188;-71
2021/06/04 01:22:15;;;;;;;7.33;3.77;;;;;;;13.63;66.53;101428.59;4980159;28;20234;-71
2021/06/04 01:24:59;;;;;;;4.30;3.70;;;;;;;13.68;66.73;101423.22;4984548;28;20717;-71
2021/06/04 01:27:32;;;;;;;5.90;3.70;;;;;;;13.69;66.38;101422.34;4983342;28;20207;-71
2021/06/04 01:30:07;;;;;;;5.20;3.80;;;;;;;13.73;65.99;101429.22;4990435;28;20192;-71
2021/06/04 01:32:36;;;;;;;4.30;3.80;;;;;;;13.76;65.88;101425.66;4984867;28;20649;-71
2021/06/04 01:35:07;;;;;;;6.27;3.97;;;;;;;13.78;66.19;101435.19;4985689;28;20209;-71
2021/06/04 01:37:34;;;;;;;6.20;3.63;;;;;;;13.79;66.39;101446.53;4986621;28;20251;-71
2021/06/04 01:40:12;;;;;;;5.67;4.00;;;;;;;13.75;67.53;101443.13;4985113;28;20199;-71
2021/06/04 01:42:46;;;;;;;5.30;4.07;;;;;;;13.71;66.48;101444.13;4988209;28;20205;-71
2021/06/04 01:45:19;;;;;;;4.17;3.77;;;;;;;13.70;66.29;101438.91;5003786;28;20235;-71
2021/06/04 01:47:53;;;;;;;4.13;3.70;;;;;;;13.68;67.31;101438.09;4987379;28;20196;-71
2021/06/04 01:50:27;;;;;;;4.47;3.87;;;;;;;13.62;66.94;101433.88;4993002;28;20331;-71
2021/06/04 01:52:59;;;;;;;5.23;4.13;;;;;;;13.62;66.69;101437.34;4986400;28;20298;-71
2021/06/04 01:55:28;;;;;;;6.57;3.90;;;;;;;13.59;66.51;101447.91;4990862;28;20228;-71
2021/06/04 01:58:02;;;;;;;4.63;3.70;;;;;;;13.54;67.97;101444.53;4987098;28;20201;-71
2021/06/04 02:00:33;;;;;;;4.27;3.87;;;;;;;13.46;68.68;101449.13;4984015;28;20667;-71
2021/06/04 02:03:13;;;;;;;4.17;3.53;;;;;;;13.38;69.54;101444.06;4985615;28;20740;-71
2021/06/04 02:05:51;;;;;;;4.93;3.90;;;;;;;13.33;68.91;101443.34;4980768;28;20974;-71
2021/06/04 02:08:23;;;;;;;6.30;4.20;;;;;;;13.31;69.54;101444.22;4980917;28;20232;-71
2021/06/04 02:10:52;;;;;;;6.00;4.07;;;;;;;13.29;68.29;101446.88;4986753;28;20661;-71
2021/06/04 02:13:22;;;;;;;6.63;4.07;;;;;;;13.28;68.59;101437.31;4985330;28;20255;-71
2021/06/04 02:16:07;;;;;;;5.27;3.80;;;;;;;13.27;69.56;101444.31;4987490;28;20242;-71
2021/06/04 02:18:44;;;;;;;6.73;4.23;;;;;;;13.25;69.33;101433.00;5001619;28;20691;-71
2021/06/04 02:21:28;;;;;;;4.57;3.70;;;;;;;13.26;69.38;101426.00;4989691;28;20231;-71
2021/06/04 02:24:06;;;;;;;4.93;3.67;;;;;;;13.26;69.11;101423.38;4983214;28;20282;-71
2021/06/04 02:26:39;;;;;;;6.90;3.97;;;;;;;13.24;69.73;101419.94;4986178;28;20234;-71
2021/06/04 02:29:14;;;;;;;6.20;4.30;;;;;;;13.22;69.95;101422.59;4982741;28;20657;-71
2021/06/04 02:31:46;;;;;;;4.73;4.20;;;;;;;13.20;70.23;101421.78;4981028;28;20579;-71
2021/06/04 02:34:19;;;;;;;5.27;4.17;;;;;;;13.20;69.30;101429.63;4984385;28;20237;-71
2021/06/04 02:36:53;;;;;;;5.20;4.13;;;;;;;13.24;69.83;101419.94;4991216;28;20226;-71
2021/06/04 02:39:26;;;;;;;5.67;4.10;;;;;;;13.24;70.09;101419.94;4986286;28;20224;-71
2021/06/04 02:41:58;;;;;;;5.77;4.23;;;;;;;13.26;69.66;101412.91;4993510;28;20230;-71
2021/06/04 02:44:32;;;;;;;5.13;3.83;;;;;;;13.26;69.51;101421.66;4985642;28;20253;-71
2021/06/04 02:47:10;;;;;;;6.30;4.10;;;;;;;13.26;70.23;101418.16;4980827;28;20695;-71
2021/06/04 02:49:40;;;;;;;5.80;4.00;;;;;;;13.31;69.41;101426.78;4979777;28;20195;-71
2021/06/04 02:52:11;;;;;;;7.87;4.47;;;;;;;13.32;69.59;101418.03;4984062;28;20621;-71
2021/06/04 02:54:44;;;;;;;5.83;4.50;;;;;;;13.31;69.65;101429.41;4983543;28;20201;-71
2021/06/04 02:57:14;;;;;;;5.33;3.93;;;;;;;13.33;69.80;101426.75;4984614;28;20228;-71
2021/06/04 02:59:44;;;;;;;4.73;4.13;;;;;;;13.34;70.29;101424.09;4983812;28;20993;-71
2021/06/04 03:02:15;;;;;;;6.43;4.70;;;;;;;13.36;70.17;101424.06;4983090;28;20737;-71
2021/06/04 03:04:44;;;;;;;6.50;3.90;;;;;;;13.38;70.43;101423.09;4977567;28;20226;-71
2021/06/04 03:07:15;;;;;;;7.63;4.90;;;;;;;13.42;70.14;101421.28;4987075;28;20205;-72
2021/06/04 03:09:44;;;;;;;6.10;4.40;;;;;;;13.44;70.35;101422.13;4998078;28;20714;-71
2021/06/04 03:12:16;;;;;;;5.10;4.53;;;;;;;13.51;71.88;101425.41;4982217;28;20205;-71
2021/06/04 03:14:47;;;;;;;7.63;4.20;;;;;;;13.51;70.06;101428.03;4990060;28;20625;-72
2021/06/04 03:17:16;;;;;;;5.97;4.03;;;;;;;13.54;70.61;101428.81;4984665;28;20670;-71
2021/06/04 03:19:42;;;;;;;5.40;4.20;;;;;;;13.58;70.92;101424.38;4976548;28;20773;-71
2021/06/04 03:22:13;;;;;;;9.07;4.17;;;;;;;13.60;70.89;101425.22;4986827;28;20212;-71
2021/06/04 03:24:44;;;;;;;7.17;4.20;;;;;;;13.61;71.65;101425.16;4983714;28;20723;-71
2021/06/04 03:27:14;;;;;;;6.00;4.13;;;;;;;13.63;71.72;101433.84;5000800;28;20208;-71
2021/06/04 03:29:45;;;;;;;5.63;4.47;;;;;;;13.67;71.35;101431.13;4985327;28;20207;-71
2021/06/04 03:32:13;;;;;;;5.43;4.80;;;;;;;13.71;71.98;101436.25;4985527;28;20292;-71
2021/06/04 03:34:43;;;;;;;6.17;3.93;;;;;;;13.75;73.01;101434.41;4984910;28;20895;-71
2021/06/04 03:37:12;;;;;;;5.10;4.10;;;;;;;13.75;73.02;101427.41;4980740;28;20193;-71
2021/06/04 03:39:41;;;;;;;5.57;4.20;;;;;;;13.76;71.15;101430.91;4981569;28;20564;-72
2021/06/04 03:42:14;;;;;;;5.03;4.20;;;;;;;13.79;71.53;101423.81;4994992;28;20340;-72
2021/06/04 03:44:44;;;;;;;5.47;4.57;;;;;;;13.83;71.52;101428.06;4984960;28;20209;-71
2021/06/04 03:47:12;;;;;;;6.20;4.30;;;;;;;13.86;72.17;101421.91;4970380;28;20563;-71
2021/06/04 03:49:39;;;;;;;6.07;4.20;;;;;;;13.88;70.87;101427.94;4985504;28;20212;-71
2021/06/04 03:52:08;;;;;;;7.40;4.43;;;;;;;13.93;70.59;101430.44;4979148;28;20216;-71
2021/06/04 03:54:39;;;;;;;5.33;4.53;;;;;;;13.96;70.82;101430.34;4980841;28;20213;-71
2021/06/04 03:57:07;;;;;;;5.70;4.27;;;;;;;13.99;69.15;101436.38;4989176;28;20239;-71
2021/06/04 03:59:33;;;;;;;6.63;4.57;;;;;;;14.06;69.08;101436.22;4991470;28;20682;-71
2021/06/04 04:02:03;;;;;;;6.40;4.33;;;;;;;14.09;70.08;101433.47;4985001;28;20215;-71
2021/06/04 04:04:31;;;;;;;6.13;4.27;;;;;;;14.11;69.22;101429.09;5003529;28;20552;-71
2021/06/04 04:06:57;;;;;;;6.43;4.63;;;;;;;14.14;69.16;101422.00;4989000;28;20205;-71
2021/06/04 04:09:23;;;;;;;6.27;4.60;;;;;;;14.19;69.12;101430.59;4993043;28;20224;-71
2021/06/04 04:11:52;;;;;;;6.40;4.47;;;;;;;14.23;68.73;101427.84;4991112;28;20277;-71
2021/06/04 04:14:19;;;;;;;5.03;4.53;;;;;;;14.30;69.49;101426.78;5018047;28;20222;-71
2021/06/04 04:16:45;;;;;;;6.63;4.17;;;;;;;14.32;69.35;101430.25;4988567;28;20752;-71
2021/06/04 04:19:12;;;;;;;7.07;4.47;;;;;;;14.35;69.82;101431.00;4995089;28;20418;-71
2021/06/04 04:21:40;;;;;;;6.37;4.33;;;;;;;14.37;69.93;101430.94;4987389;28;20224;-71
2021/06/04 04:24:11;;;;;;;7.70;4.20;;;;;;;14.39;70.21;101429.16;4989733;28;20268;-73
2021/06/04 04:26:39;;;;;;;6.77;4.47;;;;;;;14.42;70.25;101415.91;4986363;28;20229;-71
2021/06/04 04:29:06;;;;;;;8.07;4.53;;;;;;;14.47;71.15;101418.41;4993117;28;20193;-73
2021/06/04 04:31:36;;;;;;;5.83;4.50;;;;;;;14.54;69.46;101422.56;4990907;28;20220;-71
2021/06/04 04:34:05;;;;;;;6.23;4.30;;;;;;;14.61;69.45;101423.28;4990907;28;20200;-72
2021/06/04 04:36:36;;;;;;;5.57;4.33;;;;;;;14.67;69.05;101425.72;4986455;28;20233;-71
2021/06/04 04:39:06;;;;;;;5.67;4.00;;;;;;;14.73;69.66;101421.13;4978381;28;20228;-73
2021/06/04 04:41:32;;;;;;;5.53;4.73;;;;;;;14.79;71.76;101412.22;4989493;28;20214;-72
2021/06/04 04:43:59;;;;;;;5.73;4.40;;;;;;;14.83;70.47;101416.47;4987946;28;20201;-72
2021/06/04 04:46:27;;;;;;;5.77;4.40;;;;;;;14.90;69.84;101422.41;4992155;28;20233;-72
2021/06/04 04:48:54;;;;;;;8.87;4.60;;;;;;;14.99;68.74;101418.63;4982568;28;20213;-71
2021/06/04 04:51:21;;;;;;;6.73;4.50;;;;;;;15.07;68.88;101416.59;4989182;28;20221;-71
2021/06/04 04:53:50;;;;;;;7.63;4.77;;;;;;;15.14;68.07;101418.09;4985074;28;20240;-71
2021/06/04 04:56:17;;;;;;;4.67;4.00;;;;;;;15.20;68.46;101414.44;4985758;28;20225;-72
2021/06/04 04:58:43;;;;;;;6.50;4.20;;;;;;;15.24;68.58;101416.91;4987962;28;20317;-72
2021/06/04 05:01:11;;;;;;;5.27;4.23;;;;;;;15.28;68.17;101423.75;4992644;28;20247;-72
2021/06/04 05:03:37;;;;;;;4.70;4.20;;;;;;;15.30;67.90;101426.34;5009597;28;20209;-72
2021/06/04 05:06:04;;;;;;;6.43;4.57;;;;;;;15.30;67.23;101435.09;4981091;28;20304;-71
2021/06/04 05:08:30;;;;;;;7.57;4.43;;;;;;;15.31;66.41;101436.81;4987445;28;20740;-72
2021/06/04 05:10:57;;;;;;;7.30;4.20;;;;;;;15.33;67.06;101432.34;4987707;28;20652;-71
2021/06/04 05:13:25;;;;;;;6.57;4.47;;;;;;;15.33;66.81;101436.75;4985189;28;20199;-71
2021/06/04 05:15:51;;;;;;;6.93;4.50;;;;;;;15.31;66.99;101425.44;4992142;28;20227;-71
2021/06/04 05:18:18;;;;;;;5.10;4.53;;;;;;;15.30;67.00;101424.59;4988429;28;20571;-71
2021/06/04 05:20:46;;;;;;;5.43;4.57;;;;;;;15.31;66.71;101426.28;4983052;28;20248;-73
2021/06/04 05:23:13;;;;;;;6.00;4.57;;;;;;;15.33;66.92;101421.00;4987883;28;20416;-71
2021/06/04 05:25:41;;;;;;;4.67;4.10;;;;;;;15.31;67.17;101415.78;4991914;28;20221;-71
2021/06/04 05:28:09;;;;;;;8.13;4.80;;;;;;;15.31;67.18;101417.56;4984142;28;20217;-71
2021/06/04 05:30:39;;;;;;;5.93;4.30;;;;;;;15.30;67.95;101415.84;4984264;28;20195;-71
2021/06/04 05:33:08;;;;;;;7.53;4.90;;;;;;;15.31;68.18;101422.81;4989721;28;20561;-71
2021/06/04 05:35:34;;;;;;;7.40;4.63;;;;;;;15.32;68.96;101416.66;4979729;28;20209;-71
2021/06/04 05:38:00;;;;;;;6.00;4.50;;;;;;;15.32;69.04;101412.25;4986014;28;20571;-71
2021/06/04 05:40:29;;;;;;;8.13;4.93;;;;;;;15.30;69.62;101403.56;4977016;28;20754;-71
2021/06/04 05:42:56;;;;;;;8.23;4.77;;;;;;;15.28;70.85;101407.16;4983736;28;20198;-71
2021/06/04 05:45:25;;;;;;;6.90;4.97;;;;;;;15.26;70.00;101411.59;4983314;28;20318;-71
2021/06/04 05:47:53;;;;;;;6.23;4.27;;;;;;;15.21;69.86;101421.41;4982239;28;20208;-72
2021/06/04 05:50:24;;;;;;;8.17;5.20;;;;;;;15.18;70.17;101406.63;4986336;28;20205;-70
2021/06/04 05:52:51;;;;;;;6.00;5.03;;;;;;;15.19;70.70;101399.59;4983880;28;20197;-72
2021/06/04 05:55:21;;;;;;;5.33;4.57;;;;;;;15.19;70.85;101396.97;4984862;28;20726;-71
2021/06/04 05:57:47;;;;;;;6.73;4.77;;;;;;;15.19;70.93;101400.44;4986630;28;20196;-71
2021/06/04 06:00:19;;;;;;;7.70;4.97;;;;;;;15.19;71.09;101405.69;4989079;28;20209;-71
2021/06/04 06:02:46;;;;;;;7.83;4.93;;;;;;;15.21;71.59;101414.38;4997824;28;20225;-71
2021/06/04 06:05:14;;;;;;;6.47;5.00;;;;;;;15.22;71.49;101415.25;4984240;28;20770;-71
2021/06/04 06:07:40;;;;;;;5.63;4.63;;;;;;;15.24;71.34;101416.91;4984948;28;20205;-71
2021/06/04 06:10:07;;;;;;;6.23;4.80;;;;;;;15.26;71.94;101416.84;4981359;28;20210;-71
2021/06/04 06:12:33;;;;;;;6.60;4.57;;;;;;;15.29;71.33;101414.97;4994929;28;20783;-71
2021/06/04 06:14:59;;;;;;;7.13;5.37;;;;;;;15.31;71.83;101417.56;4986686;28;20228;-71
2021/06/04 06:17:25;;;;;;;10.70;5.07;;;;;;;15.32;71.99;101425.41;4981465;28;20202;-71
2021/06/04 06:19:51;;;;;;;7.87;4.93;;;;;;;15.33;72.28;101434.97;4988196;28;20208;-71
2021/06/04 06:22:18;;;;;;;9.43;5.20;;;;;;;15.33;72.01;101428.88;5004224;28;20225;-71
2021/06/04 06:24:44;;;;;;;6.37;4.83;;;;;;;15.34;71.56;101433.22;4981491;28;20221;-71
2021/06/04 06:27:10;;;;;;;6.77;5.23;;;;;;;15.38;72.58;101429.59;4986063;28;20597;-71
2021/06/04 06:29:38;;;;;;;6.47;4.77;;;;;;;15.34;71.30;101427.97;4971787;28;20196;-71
2021/06/04 06:32:06;;;;;;;6.57;4.87;;;;;;;15.32;71.65;101428.03;4973008;28;20317;-71
2021/06/04 06:34:35;;;;;;;8.33;4.67;;;;;;;15.31;72.17;101421.03;4980504;28;20207;-71
2021/06/04 06:37:01;;;;;;;6.77;5.00;;;;;;;15.28;72.63;101421.13;4981284;28;20213;-71
2021/06/04 06:39:31;;;;;;;8.63;5.27;;;;;;;15.29;73.48;101419.38;4989473;28;20652;-71
2021/06/04 06:41:59;;;;;;;9.00;5.50;;;;;;;15.31;74.68;101428.06;4985743;28;20297;-71
2021/06/04 06:44:25;;;;;;;8.23;5.07;;;;;;;15.29;74.36;101425.50;4997304;28;20229;-73
2021/06/04 06:46:53;;;;;;;6.83;5.30;;;;;;;15.29;75.58;101420.25;4980501;28;20250;-71
2021/06/04 06:49:20;;;;;;;8.53;5.40;;;;;;;15.32;75.61;101422.78;4985524;28;20285;-72
2021/06/04 06:51:47;;;;;;;6.07;5.10;;;;;;;15.37;76.03;101422.59;4984295;28;20209;-71
2021/06/04 06:54:17;;;;;;;8.73;5.70;;;;;;;15.40;75.93;101424.28;4993872;28;20201;-71
2021/06/04 06:56:47;;;;;;;8.33;5.57;;;;;;;15.43;76.69;101421.56;4983692;28;20251;-71
2021/06/04 06:59:13;;;;;;;9.07;5.77;;;;;;;15.46;76.42;101418.81;4989870;28;20299;-73
2021/06/04 07:01:39;;;;;;;7.93;5.37;;;;;;;15.48;76.53;101409.13;4986747;28;20312;-71
2021/06/04 07:04:05;;;;;;;7.87;5.53;;;;;;;15.57;75.85;101411.44;4988111;28;20200;-71
2021/06/04 07:06:34;;;;;;;9.30;6.03;;;;;;;15.64;75.69;101415.56;4985036;28;20223;-71
2021/06/04 07:09:01;;;;;;;8.20;5.77;;;;;;;15.76;75.17;101422.19;4983893;28;20616;-71
2021/06/04 07:11:32;;;;;;;6.90;5.73;;;;;;;15.88;75.12;101431.41;4984300;28;20227;-71
2021/06/04 07:13:59;;;;;;;7.60;5.47;;;;;;;16.03;75.88;101430.00;4981610;28;20216;-71
2021/06/04 07:16:25;;;;;;;9.87;5.43;;;;;;;16.16;73.44;101428.63;4984162;28;20239;-70
2021/06/04 07:18:52;;;;;;;8.37;5.67;;;;;;;16.35;75.27;101426.19;4979215;28;20280;-71
2021/06/04 07:21:21;;;;;;;8.10;5.87;;;;;;;16.43;73.07;101433.81;4990008;28;20732;-71
2021/06/04 07:23:47;;;;;;;9.20;5.47;;;;;;;16.44;71.34;101436.34;4984561;28;20205;-71
2021/06/04 07:26:14;;;;;;;6.03;5.23;;;;;;;16.51;71.83;101434.34;4986763;28;20228;-71
2021/06/04 07:28:40;;;;;;;8.77;5.93;;;;;;;16.55;71.71;101430.72;4982406;28;20197;-71
2021/06/04 07:31:10;;;;;;;7.50;5.70;;;;;;;16.60;72.06;101427.88;4984153;28;20189;-71
2021/06/04 07:33:38;;;;;;;8.07;5.40;;;;;;;16.62;72.00;101426.91;4989893;28;20297;-71
2021/06/04 07:36:08;;;;;;;6.60;5.10;;;;;;;16.72;72.27;101429.19;4992418;28;20220;-71
2021/06/04 07:38:34;;;;;;;6.83;5.47;;;;;;;16.77;71.70;101424.59;4986196;28;20204;-71
2021/06/04 07:41:01;;;;;;;7.80;5.73;;;;;;;16.91;71.97;101416.19;4986456;28;20213;-72
2021/06/04 07:43:29;;;;;;;7.57;5.67;;;;;;;17.03;72.27;101420.97;4982891;28;20742;-71
2021/06/04 07:45:57;;;;;;;5.87;5.00;;;;;;;17.16;70.86;101427.44;4983357;28;20284;-72
2021/06/04 07:48:25;;;;;;;6.33;5.30;;;;;;;17.28;70.39;101431.34;4981640;28;20288;-72
2021/06/04 07:50:54;;;;;;;8.90;5.80;;;;;;;17.37;70.35;101433.59;4977255;28;20576;-72
2021/06/04 07:53:24;;;;;;;7.03;5.10;;;;;;;17.56;70.94;101428.41;4979909;28;20201;-72
2021/06/04 07:55:50;;;;;;;6.33;4.90;;;;;;;17.62;70.23;101439.63;4978610;28;20221;-72
2021/06/04 07:58:16;;;;;;;7.80;5.13;;;;;;;17.74;68.74;101439.09;4981313;28;20225;-72
2021/06/04 08:00:42;;;;;;;6.00;5.13;;;;;;;17.93;70.10;101439.19;4982882;28;20247;-72
2021/06/04 08:03:10;;;;;;;6.63;5.57;;;;;;;18.00;67.89;101447.69;4980291;28;20213;-71
2021/06/04 08:05:38;;;;;;;6.20;5.27;;;;;;;18.13;67.90;101443.56;4980531;28;20221;-72
2021/06/04 08:08:08;;;;;;;6.23;5.63;;;;;;;18.17;67.45;101439.88;4982039;28;20204;-72
2021/06/04 08:10:34;;;;;;;8.43;5.30;;;;;;;18.25;67.57;101445.66;4983575;28;20200;-72
2021/06/04 08:13:00;;;;;;;7.90;5.33;;;;;;;18.41;66.88;101448.44;4984436;28;20189;-72
2021/06/04 08:15:30;;;;;;;6.63;5.00;;;;;;;18.45;66.37;101446.50;4974696;28;20213;-72
2021/06/04 08:17:56;;;;;;;7.33;5.37;;;;;;;18.50;66.37;101447.16;4980827;28;20259;-72
2021/06/04 08:20:25;;;;;;;7.50;5.03;;;;;;;18.74;66.28;101448.66;4983481;28;20240;-72
2021/06/04 08:22:55;;;;;;;8.27;5.50;;;;;;;18.91;65.93;101444.41;4982954;28;20217;-72
2021/06/04 08:25:25;;;;;;;7.43;5.43;;;;;;;19.03;65.66;101448.22;4983862;28;21002;-72
2021/06/04 08:27:51;;;;;;;5.43;4.80;;;;;;;19.13;65.85;101448.63;4976753;28;20208;-72
2021/06/04 08:30:18;;;;;;;8.23;5.13;;;;;;;19.22;64.51;101449.03;4974652;28;20240;-72
2021/06/04 08:32:44;;;;;;;6.60;5.23;;;;;;;19.29;65.51;101446.94;4976447;28;20687;-72
2021/06/04 08:35:12;;;;;;;8.17;5.30;;;;;;;19.43;64.49;101439.16;4984496;28;20228;-72
2021/06/04 08:37:40;;;;;;;9.33;5.40;;;;;;;19.57;64.13;101450.84;4986236;28;20209;-72
2021/06/04 08:40:12;;;;;;;8.07;5.47;;;;;;;19.53;64.13;101446.66;4977865;28;20225;-72
2021/06/04 08:42:48;;;;;;;9.03;5.20;;;;;;;19.71;64.43;101448.34;4992204;28;20243;-72
2021/06/04 08:45:31;;;;;;;5.97;5.20;;;;;;;19.88;63.23;101441.38;4987091;28;20243;-72
2021/06/04 08:48:09;;;;;;;5.83;5.23;;;;;;;19.73;63.30;101443.81;5001990;28;20197;-72
2021/06/04 08:50:43;;;;;;;6.30;4.97;;;;;;;19.85;63.78;101451.16;5000601;28;20197;-71
2021/06/04 08:53:18;;;;;;;5.43;4.93;;;;;;;19.93;64.41;101450.78;4980428;28;20204;-72
2021/06/04 08:55:55;;;;;;;6.80;5.07;;;;;;;19.97;63.11;101452.31;4986053;28;20236;-72
2021/06/04 08:58:43;;;;;;;5.63;4.97;;;;;;;20.02;62.20;101444.16;4985073;28;20571;-71
2021/06/04 09:01:13;;;;;;;6.90;5.33;;;;;;;19.94;62.53;101435.75;4989086;28;20224;-72
2021/06/04 09:03:42;;;;;;;5.37;4.83;;;;;;;20.07;62.59;101442.09;4980783;28;20208;-72
2021/06/04 09:06:12;;;;;;;6.43;5.27;;;;;;;20.29;61.94;101440.94;4987068;28;20217;-73
2021/06/04 09:08:42;;;;;;;7.33;5.33;;;;;;;20.49;62.16;101438.09;4982654;28;20213;-72
2021/06/04 09:11:18;;;;;;;9.17;5.00;;;;;;;20.51;61.13;101436.19;4985220;28;20614;-74
2021/06/04 09:13:44;;;;;;;7.17;4.97;;;;;;;20.56;61.64;101431.50;4982473;28;20197;-72
2021/06/04 09:16:14;;;;;;;8.53;5.73;;;;;;;20.57;61.06;101433.19;4979357;28;20601;-72
2021/06/04 09:18:46;;;;;;;6.13;5.27;;;;;;;20.67;61.91;101435.34;4987479;28;20591;-72
2021/06/04 09:21:15;;;;;;;5.87;4.87;;;;;;;20.47;61.58;101437.28;4990157;28;20303;-72
2021/06/04 09:23:43;;;;;;;6.17;5.00;;;;;;;20.52;61.64;101435.25;4986293;28;20252;-72
2021/06/04 09:26:12;;;;;;;6.67;5.30;;;;;;;20.43;62.39;101428.66;4982672;28;20295;-73
2021/06/04 09:28:46;;;;;;;5.57;5.00;;;;;;;20.41;62.49;101435.00;4985902;28;20208;-72
2021/06/04 09:31:23;;;;;;;7.70;5.73;;;;;;;20.52;62.02;101435.25;4984388;28;20278;-71
2021/06/04 09:33:52;;;;;;;7.73;5.40;;;;;;;20.54;62.05;101436.00;4990040;28;20250;-70
2021/06/04 09:36:21;;;;;;;6.33;5.57;;;;;;;20.51;62.49;101437.97;4986088;28;20220;-70
2021/06/04 09:38:49;;;;;;;8.03;5.00;;;;;;;20.61;62.80;101434.78;4988784;28;20240;-71
2021/06/04 09:41:26;;;;;;;6.00;5.40;;;;;;;20.74;62.37;101439.41;4985624;28;20310;-72
2021/06/04 09:44:08;;;;;;;6.03;4.83;;;;;;;20.82;61.92;101446.91;4985134;28;20195;-71
2021/06/04 09:46:40;;;;;;;5.27;4.77;;;;;;;21.03;61.47;101437.72;4984706;28;20240;-73
2021/06/04 09:49:07;;;;;;;5.80;4.70;;;;;;;21.33;60.16;101436.91;4981795;28;20710;-71
2021/06/04 09:51:35;;;;;;;7.13;5.00;;;;;;;21.64;59.97;101443.09;4998624;28;20738;-71
2021/06/04 09:54:16;;;;;;;5.53;4.97;;;;;;;21.92;58.25;101442.28;4984547;28;20252;-72
2021/06/04 09:56:43;;;;;;;7.37;5.63;;;;;;;21.91;58.28;101436.09;4983803;28;20596;-72
2021/06/04 09:59:12;;;;;;;5.47;4.97;;;;;;;22.03;58.02;101445.09;4979222;28;20302;-72
2021/06/04 10:01:44;;;;;;;6.03;4.67;;;;;;;22.19;58.86;101425.56;4985250;28;20232;-72
2021/06/04 10:04:16;;;;;;;7.03;4.93;;;;;;;22.42;57.90;101424.16;4982551;28;20217;-74
2021/06/04 10:06:44;;;;;;;5.47;4.90;;;;;;;22.66;56.36;101429.72;4982268;28;20221;-72
2021/06/04 10:09:20;;;;;;;7.60;4.90;;;;;;;22.67;56.53;101423.44;4982117;28;20201;-72
2021/06/04 10:11:55;;;;;;;8.98;5.03;;;;;;;22.84;57.64;101427.66;4980150;28;20200;-74
2021/06/04 10:14:29;;;;;;;7.07;5.25;;;;;;;22.78;55.93;101426.25;4983168;28;20207;-72
2021/06/04 10:17:03;;;;;;;6.10;5.25;;;;;;;22.88;55.46;101421.19;4991160;28;20303;-72
2021/06/04 10:19:35;;;;;;;5.50;5.00;;;;;;;23.04;55.47;101423.69;4985177;28;20751;-73
2021/06/04 10:22:34;;;;;;;5.88;5.07;;;;;;;23.27;54.61;101419.53;4980078;28;20221;-73
2021/06/04 10:25:22;;;;;;;5.60;4.50;;;;;;;23.19;54.27;101413.88;4978208;28;20210;-72
2021/06/04 10:27:52;;;;;;;6.18;5.10;;;;;;;23.03;54.83;101411.34;4979903;28;20206;-72
2021/06/04 10:30:21;;;;;;;6.45;5.03;;;;;;;23.25;55.51;101406.34;4990274;28;20194;-73
2021/06/04 10:32:55;;;;;;;5.93;5.43;;;;;;;23.28;54.16;101409.75;4982814;28;20891;-72
2021/06/04 10:35:25;;;;;;;5.95;5.05;;;;;;;23.16;54.40;101416.72;4985840;28;20226;-72
2021/06/04 10:37:58;;;;;;;5.60;5.10;;;;;;;23.35;53.92;101414.53;4981719;28;20232;-72
2021/06/04 10:40:30;;;;;;;5.28;4.78;;;;;;;23.55;53.96;101399.03;4982383;28;20207;-73
2021/06/04 10:43:12;;;;;;;6.43;4.82;;;;;;;23.68;52.70;101407.88;4983547;28;20225;-72
2021/06/04 10:45:40;;;;;;;5.32;4.68;;;;;;;23.78;52.64;101411.59;4979400;28;20295;-73
2021/06/04 10:48:36;;;;;;;8.10;5.40;;;;;;;23.77;53.10;101407.22;4980257;28;20255;-72
2021/06/04 10:51:11;;;;;;;6.53;4.72;;;;;;;23.70;53.56;101402.44;4978448;28;20193;-72
2021/06/04 10:53:45;;;;;;;7.47;5.38;;;;;;;23.60;53.48;101404.88;4982166;28;20574;-71
2021/06/04 10:56:17;;;;;;;7.70;4.95;;;;;;;23.58;53.26;101398.81;4981192;28;20824;-72
2021/06/04 10:58:52;;;;;;;5.07;4.57;;;;;;;23.58;54.80;101404.97;4982593;28;20211;-72
2021/06/04 11:01:25;;;;;;;5.93;5.00;;;;;;;23.54;54.87;101400.00;4979874;28;20205;-72
2021/06/04 11:03:59;;;;;;;5.45;4.70;;;;;;;23.44;54.10;101402.41;4971655;28;20220;-72
2021/06/04 11:06:33;;;;;;;7.45;5.05;;;;;;;23.27;55.19;101408.91;4981308;28;20221;-73
2021/06/04 11:09:13;;;;;;;6.38;5.05;;;;;;;23.01;55.89;101392.00;4981213;28;20607;-72
2021/06/04 11:11:53;;;;;;;5.45;4.95;;;;;;;22.82;56.34;101395.00;4981080;28;20197;-73
2021/06/04 11:14:54;;;;;;;7.40;4.75;;;;;;;22.66;57.24;101396.00;4981484;28;20217;-72
2021/06/04 11:17:28;;;;;;;6.13;4.85;;;;;;;22.59;57.20;101401.84;4980026;28;20211;-71
2021/06/04 11:20:03;;;;;;;6.60;4.75;;;;;;;22.48;58.15;101403.38;4981253;28;20584;-72
2021/06/04 11:22:42;;;;;;;5.38;4.40;;;;;;;22.35;57.64;101414.88;4975980;28;20217;-72
2021/06/04 11:25:25;;;;;;;6.05;5.20;;;;;;;22.24;58.24;101411.06;4982016;28;20678;-72
2021/06/04 11:27:58;;;;;;;8.80;5.30;;;;;;;22.09;59.64;101404.91;4976567;28;20766;-72
2021/06/04 11:30:29;;;;;;;7.72;5.30;;;;;;;21.85;61.91;101406.44;4980788;28;20283;-71
2021/06/04 11:33:03;;;;;;;5.90;5.30;;;;;;;21.69;63.93;101390.59;4980409;28;20669;-72
2021/06/04 11:35:33;;;;;;;5.63;4.93;;;;;;;21.47;66.75;101375.94;4980406;28;20228;-72
2021/06/04 11:38:04;;;;;;;8.67;5.40;;;;;;;21.20;68.38;101370.47;4976024;28;20207;-71
2021/06/04 11:40:33;;;;;;;7.87;5.70;;;;;;;20.97;69.00;101364.72;4990493;28;20212;-72